createdAt,value
2019-02-20T00:00:36.922Z,98798.48
2019-02-20T00:01:45.469Z,98798.48
2019-02-20T00:02:53.863Z,98799.42
2019-02-20T00:04:02.647Z,98796.41
2019-02-20T00:05:11.759Z,98800.94
2019-02-20T00:06:20.431Z,98800.56
2019-02-20T00:07:29.343Z,98801.28
2019-02-20T00:08:37.505Z,98811.55
2019-02-20T00:09:45.814Z,98802.48
2019-02-20T00:10:53.905Z,98802.95
2019-02-20T00:12:02.516Z,98804.84
2019-02-20T00:13:11.200Z,98801.83
2019-02-20T00:14:20.078Z,98801.36
2019-02-20T00:15:28.930Z,98803.42
2019-02-20T00:16:37.901Z,98805.02
2019-02-20T00:17:46.266Z,98800.70
2019-02-20T00:18:55.673Z,98816.13
2019-02-20T00:20:04.911Z,98815.97
2019-02-20T00:21:13.217Z,98817.58
2019-02-20T00:22:22.023Z,98818.33
2019-02-20T00:23:31.466Z,98817.75
2019-02-20T00:24:40.265Z,98812.95
2019-02-20T00:25:50.469Z,98814.27
2019-02-20T00:26:59.085Z,98817.38
2019-02-20T00:28:07.612Z,98812.11
2019-02-20T00:29:15.936Z,98816.53
2019-02-20T00:30:25.764Z,98815.69
2019-02-20T00:31:34.470Z,98819.64
2019-02-20T00:32:43.148Z,98822.75
2019-02-20T00:33:52.164Z,98831.03
2019-02-20T00:35:00.538Z,98827.64
2019-02-20T00:36:09.388Z,98815.41
2019-02-20T00:37:17.767Z,98815.41
2019-02-20T00:38:26.679Z,98818.05
2019-02-20T00:39:35.139Z,98826.05
2019-02-20T00:40:43.335Z,98819.83
2019-02-20T00:41:51.926Z,98819.93
2019-02-20T00:43:00.067Z,98818.67
2019-02-20T00:44:12.969Z,98818.30
2019-02-20T00:45:23.756Z,98815.85
2019-02-20T00:46:34.074Z,98820.37
2019-02-20T00:47:48.251Z,98820.91
2019-02-20T00:49:01.018Z,98819.69
2019-02-20T00:50:09.622Z,98830.41
2019-02-20T00:51:22.307Z,98820.50
2019-02-20T00:52:35.749Z,98825.02
2019-02-20T00:53:45.445Z,98821.22
2019-02-20T00:54:53.793Z,98826.21
2019-02-20T00:56:02.615Z,98820.19
2019-02-20T00:57:10.875Z,98823.77
2019-02-20T00:58:19.403Z,98820.02
2019-02-20T00:59:28.071Z,98823.31
2019-02-20T01:00:36.926Z,98835.33
2019-02-20T01:01:46.056Z,98831.18
2019-02-20T01:02:54.762Z,98826.81
2019-02-20T01:04:03.374Z,98829.27
2019-02-20T01:05:12.086Z,98828.66
2019-02-20T01:06:20.037Z,98832.23
2019-02-20T01:07:28.280Z,98830.31
2019-02-20T01:08:36.583Z,98833.13
2019-02-20T01:09:45.741Z,98824.06
2019-02-20T01:10:54.347Z,98825.00
2019-02-20T01:12:02.562Z,98829.51
2019-02-20T01:13:11.900Z,98831.30
2019-02-20T01:14:20.742Z,98830.16
2019-02-20T01:15:29.997Z,98827.12
2019-02-20T01:16:38.587Z,98835.58
2019-02-20T01:17:46.989Z,98830.40
2019-02-20T01:18:56.113Z,98834.91
2019-02-20T01:20:06.248Z,98835.05
2019-02-20T01:21:14.763Z,98831.76
2019-02-20T01:22:23.352Z,98827.11
2019-02-20T01:23:31.515Z,98830.77
2019-02-20T01:24:39.717Z,98826.06
2019-02-20T01:25:51.355Z,98829.78
2019-02-20T01:26:58.409Z,98821.13
2019-02-20T01:28:06.597Z,98821.65
2019-02-20T01:29:14.896Z,98825.69
2019-02-20T01:30:24.029Z,98825.30
2019-02-20T01:31:32.701Z,98827.55
2019-02-20T01:32:41.319Z,98832.06
2019-02-20T01:33:49.276Z,98831.68
2019-02-20T01:34:57.495Z,98835.22
2019-02-20T01:36:06.135Z,98832.67
2019-02-20T01:37:14.747Z,98838.02
2019-02-20T01:38:23.690Z,98835.95
2019-02-20T01:39:31.839Z,98837.32
2019-02-20T01:40:40.787Z,98837.88
2019-02-20T01:41:49.194Z,98840.13
2019-02-20T01:42:58.124Z,98841.06
2019-02-20T01:44:06.274Z,98839.45
2019-02-20T01:45:14.578Z,98847.87
2019-02-20T01:46:23.663Z,98836.97
2019-02-20T01:47:32.907Z,98838.83
2019-02-20T01:48:41.706Z,98841.55
2019-02-20T01:49:50.341Z,98835.03
2019-02-20T01:50:58.615Z,98835.20
2019-02-20T01:52:06.972Z,98831.81
2019-02-20T01:53:15.492Z,98837.59
2019-02-20T01:54:25.161Z,98835.44
2019-02-20T01:55:33.384Z,98828.95
2019-02-20T01:56:41.794Z,98828.56
2019-02-20T01:57:50.353Z,98822.45
2019-02-20T01:58:58.884Z,98817.67
2019-02-20T02:00:12.176Z,98813.17
2019-02-20T02:01:21.047Z,98812.79
2019-02-20T02:02:30.389Z,98812.41
2019-02-20T02:03:39.196Z,98814.80
2019-02-20T02:04:47.423Z,98812.64
2019-02-20T02:05:55.627Z,98815.73
2019-02-20T02:07:04.116Z,98811.87
2019-02-20T02:08:12.592Z,98811.03
2019-02-20T02:09:20.986Z,98809.33
2019-02-20T02:10:29.086Z,98813.73
2019-02-20T02:11:37.459Z,98812.05
2019-02-20T02:12:45.997Z,98807.69
2019-02-20T02:13:55.019Z,98808.70
2019-02-20T02:15:03.297Z,98809.73
2019-02-20T02:16:11.389Z,98800.53
2019-02-20T02:17:19.901Z,98808.88
2019-02-20T02:18:28.579Z,98807.56
2019-02-20T02:19:36.870Z,98807.10
2019-02-20T02:20:45.074Z,98804.47
2019-02-20T02:21:53.383Z,98806.30
2019-02-20T02:23:01.889Z,98806.77
2019-02-20T02:24:10.475Z,98808.55
2019-02-20T02:25:19.305Z,98807.80
2019-02-20T02:26:27.719Z,98805.25
2019-02-20T02:27:36.125Z,98811.82
2019-02-20T02:28:45.136Z,98809.58
2019-02-20T02:29:53.632Z,98808.73
2019-02-20T02:31:02.343Z,98814.07
2019-02-20T02:32:11.475Z,98806.70
2019-02-20T02:33:19.877Z,98805.01
2019-02-20T02:34:28.280Z,98812.52
2019-02-20T02:35:37.241Z,98809.97
2019-02-20T02:36:45.593Z,98810.11
2019-02-20T02:37:53.897Z,98813.61
2019-02-20T02:39:02.147Z,98821.50
2019-02-20T02:40:11.267Z,98816.30
2019-02-20T02:41:19.444Z,98811.13
2019-02-20T02:42:28.176Z,98816.00
2019-02-20T02:43:36.339Z,98817.70
2019-02-20T02:44:44.790Z,98823.12
2019-02-20T02:45:53.126Z,98823.12
2019-02-20T02:47:01.460Z,98826.13
2019-02-20T02:48:09.528Z,98826.89
2019-02-20T02:49:18.216Z,98823.41
2019-02-20T02:50:26.474Z,98828.06
2019-02-20T02:51:34.614Z,98821.03
2019-02-20T02:52:43.226Z,98828.83
2019-02-20T02:53:51.993Z,98823.41
2019-02-20T02:54:59.841Z,98829.52
2019-02-20T02:56:09.136Z,98824.72
2019-02-20T02:57:17.937Z,98831.16
2019-02-20T02:58:26.645Z,98827.22
2019-02-20T02:59:35.289Z,98834.92
2019-02-20T03:00:44.399Z,98837.85
2019-02-20T03:01:53.168Z,98831.23
2019-02-20T03:03:01.342Z,98840.81
2019-02-20T03:04:10.083Z,98843.82
2019-02-20T03:05:18.504Z,98844.12
2019-02-20T03:06:29.204Z,98838.94
2019-02-20T03:07:38.334Z,98844.58
2019-02-20T03:08:46.737Z,98846.36
2019-02-20T03:09:55.481Z,98839.23
2019-02-20T03:11:04.272Z,98839.70
2019-02-20T03:12:12.887Z,98833.98
2019-02-20T03:13:21.592Z,98843.13
2019-02-20T03:14:30.719Z,98847.45
2019-02-20T03:15:38.962Z,98848.22
2019-02-20T03:16:47.660Z,98847.66
2019-02-20T03:17:56.223Z,98845.41
2019-02-20T03:19:04.403Z,98846.30
2019-02-20T03:20:12.504Z,98845.41
2019-02-20T03:21:20.921Z,98841.56
2019-02-20T03:22:28.938Z,98844.19
2019-02-20T03:23:40.103Z,98843.81
2019-02-20T03:24:47.043Z,98841.27
2019-02-20T03:25:55.180Z,98843.13
2019-02-20T03:27:03.448Z,98847.12
2019-02-20T03:28:11.504Z,98851.53
2019-02-20T03:29:19.740Z,98845.34
2019-02-20T03:30:28.421Z,98836.31
2019-02-20T03:31:36.350Z,98839.49
2019-02-20T03:32:44.778Z,98845.13
2019-02-20T03:33:52.739Z,98843.95
2019-02-20T03:35:01.145Z,98848.37
2019-02-20T03:36:10.124Z,98852.39
2019-02-20T03:37:18.786Z,98845.61
2019-02-20T03:38:30.336Z,98849.09
2019-02-20T03:39:37.538Z,98844.81
2019-02-20T03:40:45.951Z,98844.52
2019-02-20T03:41:54.965Z,98844.14
2019-02-20T03:43:03.517Z,98843.28
2019-02-20T03:44:12.318Z,98848.92
2019-02-20T03:45:29.141Z,98850.63
2019-02-20T03:46:38.095Z,98847.91
2019-02-20T03:47:46.114Z,98838.71
2019-02-20T03:48:54.617Z,98846.84
2019-02-20T03:50:02.795Z,98844.51
2019-02-20T03:51:11.173Z,98847.47
2019-02-20T03:52:19.510Z,98851.24
2019-02-20T03:53:28.003Z,98848.99
2019-02-20T03:54:36.426Z,98850.55
2019-02-20T03:55:45.136Z,98851.78
2019-02-20T03:56:53.551Z,98854.23
2019-02-20T03:58:01.954Z,98854.62
2019-02-20T03:59:10.685Z,98858.05
2019-02-20T04:00:18.964Z,98859.19
2019-02-20T04:01:28.139Z,98853.38
2019-02-20T04:02:36.704Z,98855.48
2019-02-20T04:03:45.121Z,98850.90
2019-02-20T04:04:53.274Z,98857.47
2019-02-20T04:06:01.346Z,98857.47
2019-02-20T04:07:10.536Z,98860.95
2019-02-20T04:08:19.288Z,98850.90
2019-02-20T04:09:27.452Z,98850.61
2019-02-20T04:10:35.456Z,98855.56
2019-02-20T04:11:43.477Z,98850.75
2019-02-20T04:12:52.015Z,98853.55
2019-02-20T04:14:01.011Z,98855.24
2019-02-20T04:15:09.674Z,98861.05
2019-02-20T04:16:17.943Z,98855.88
2019-02-20T04:17:26.367Z,98855.03
2019-02-20T04:18:34.569Z,98855.50
2019-02-20T04:19:42.987Z,98853.72
2019-02-20T04:20:51.225Z,98856.73
2019-02-20T04:21:59.523Z,98854.95
2019-02-20T04:23:08.087Z,98857.58
2019-02-20T04:24:16.419Z,98856.27
2019-02-20T04:25:24.943Z,98857.11
2019-02-20T04:26:33.874Z,98861.98
2019-02-20T04:27:42.030Z,98858.56
2019-02-20T04:28:50.130Z,98860.30
2019-02-20T04:29:58.393Z,98852.88
2019-02-20T04:31:06.832Z,98858.56
2019-02-20T04:32:15.420Z,98856.81
2019-02-20T04:33:24.121Z,98854.62
2019-02-20T04:34:32.139Z,98855.94
2019-02-20T04:35:40.747Z,98859.03
2019-02-20T04:36:49.043Z,98854.32
2019-02-20T04:37:58.084Z,98848.59
2019-02-20T04:39:07.688Z,98854.79
2019-02-20T04:40:16.119Z,98849.53
2019-02-20T04:41:25.145Z,98850.47
2019-02-20T04:42:34.088Z,98854.79
2019-02-20T04:43:42.717Z,98851.23
2019-02-20T04:44:50.968Z,98846.05
2019-02-20T04:45:59.427Z,98853.47
2019-02-20T04:47:07.727Z,98849.06
2019-02-20T04:48:16.008Z,98846.52
2019-02-20T04:49:24.480Z,98852.33
2019-02-20T04:50:33.431Z,98849.29
2019-02-20T04:51:42.629Z,98850.61
2019-02-20T04:52:51.142Z,98847.59
2019-02-20T04:53:59.393Z,98848.44
2019-02-20T04:55:08.769Z,98853.64
2019-02-20T04:56:17.115Z,98849.23
2019-02-20T04:57:25.770Z,98853.09
2019-02-20T04:58:34.788Z,98859.20
2019-02-20T04:59:43.297Z,98848.98
2019-02-20T05:00:51.651Z,98853.72
2019-02-20T05:01:59.900Z,98849.60
2019-02-20T05:03:09.077Z,98853.84
2019-02-20T05:04:17.204Z,98853.23
2019-02-20T05:05:25.468Z,98860.57
2019-02-20T05:06:34.211Z,98860.95
2019-02-20T05:07:42.865Z,98860.48
2019-02-20T05:08:51.553Z,98863.82
2019-02-20T05:10:00.356Z,98864.50
2019-02-20T05:11:08.828Z,98870.47
2019-02-20T05:12:17.464Z,98862.19
2019-02-20T05:13:26.019Z,98865.75
2019-02-20T05:14:34.364Z,98862.66
2019-02-20T05:15:42.926Z,98861.55
2019-02-20T05:16:51.479Z,98864.03
2019-02-20T05:18:00.367Z,98868.75
2019-02-20T05:19:09.168Z,98866.41
2019-02-20T05:20:17.652Z,98858.52
2019-02-20T05:21:26.296Z,98861.47
2019-02-20T05:22:35.903Z,98866.64
2019-02-20T05:23:44.466Z,98864.86
2019-02-20T05:24:53.093Z,98869.83
2019-02-20T05:26:01.456Z,98864.95
2019-02-20T05:27:09.984Z,98865.33
2019-02-20T05:28:19.117Z,98867.88
2019-02-20T05:29:28.187Z,98864.48
2019-02-20T05:30:37.899Z,98864.39
2019-02-20T05:31:46.955Z,98870.12
2019-02-20T05:32:55.573Z,98867.49
2019-02-20T05:34:03.682Z,98865.70
2019-02-20T05:35:12.496Z,98864.95
2019-02-20T05:36:21.602Z,98872.84
2019-02-20T05:37:30.973Z,98872.84
2019-02-20T05:38:39.919Z,98868.80
2019-02-20T05:50:01.638Z,98873.60
2019-02-20T05:51:10.064Z,98876.23
2019-02-20T05:52:18.349Z,98879.63
2019-02-20T05:53:26.614Z,98877.46
2019-02-20T05:54:35.293Z,98877.55
2019-02-20T05:55:43.433Z,98880.27
2019-02-20T05:56:51.345Z,98877.64
2019-02-20T05:57:59.258Z,98886.28
2019-02-20T05:59:07.479Z,98878.40
2019-02-20T06:00:16.047Z,98888.92
2019-02-20T06:01:24.230Z,98893.33
2019-02-20T06:02:32.723Z,98896.81
2019-02-20T06:03:40.715Z,98896.34
2019-02-20T06:04:48.993Z,98895.41
2019-02-20T15:37:31.789Z,99158.83
2019-02-20T15:38:42.264Z,99157.88
2019-02-20T15:39:50.419Z,99149.02
2019-02-20T15:40:58.592Z,99161.77
2019-02-20T15:42:06.817Z,99154.44
2019-02-20T15:43:15.025Z,99151.53
2019-02-20T15:44:23.330Z,99155.67
2019-02-20T15:45:31.896Z,99159.84
2019-02-20T15:46:40.480Z,99156.52
2019-02-20T15:47:48.605Z,99160.69
2019-02-20T15:48:57.724Z,99160.38
2019-02-20T15:50:12.685Z,99159.25
2019-02-20T15:51:20.753Z,99163.80
2019-02-20T15:52:28.983Z,99169.26
2019-02-20T15:53:37.582Z,99165.86
2019-02-20T15:54:45.944Z,99164.16
2019-02-20T15:55:54.375Z,99169.06
2019-02-20T15:57:02.486Z,99172.63
2019-02-20T15:58:11.557Z,99170.28
2019-02-20T15:59:20.169Z,99165.52
2019-02-20T16:00:29.043Z,99170.53
2019-02-20T16:01:37.564Z,99176.56
2019-02-20T16:02:46.196Z,99173.84
2019-02-20T16:03:54.970Z,99173.73
2019-02-20T16:05:03.209Z,99180.52
2019-02-20T16:06:11.756Z,99175.59
2019-02-20T16:07:20.272Z,99181.45
2019-02-20T16:08:29.805Z,99180.33
2019-02-20T16:09:38.191Z,99185.89
2019-02-20T16:10:47.041Z,99186.92
2019-02-20T16:11:55.531Z,99183.11
2019-02-20T16:13:04.070Z,99190.98
2019-02-20T16:14:12.420Z,99185.58
2019-02-20T16:15:20.668Z,99196.33
2019-02-20T16:16:29.180Z,99199.35
2019-02-20T16:17:37.379Z,99194.83
2019-02-20T16:18:45.681Z,99197.27
2019-02-20T16:19:53.827Z,99209.92
2019-02-20T16:21:02.178Z,99208.13
2019-02-20T17:31:03.888Z,99286.63
2019-02-20T17:36:11.574Z,99287.53
2019-02-20T17:38:21.173Z,99291.97
2019-02-20T17:42:22.839Z,99284.55
2019-02-20T17:43:33.423Z,99295.67
2019-02-20T17:47:39.689Z,99298.78
2019-02-20T17:54:43.829Z,99280.97
2019-02-20T17:55:53.917Z,99296.09
2019-02-20T18:09:20.071Z,99238.98
2019-02-20T18:13:25.582Z,99289.65
2019-02-20T18:14:34.599Z,99291.59
2019-02-20T18:15:43.687Z,99301.41
2019-02-20T18:16:51.976Z,99299.73
2019-02-20T18:18:00.719Z,99307.27
2019-02-20T18:19:09.227Z,99297.38
2019-02-20T18:20:17.431Z,99310.10
2019-02-20T18:21:25.792Z,99313.63
2019-02-20T18:22:34.534Z,99310.75
2019-02-20T18:23:42.786Z,99314.02
2019-02-20T18:24:52.015Z,99310.28
2019-02-20T18:26:00.389Z,99310.75
2019-02-20T18:27:08.521Z,99309.95
2019-02-20T18:28:24.184Z,99315.01
2019-02-20T18:29:27.593Z,99313.64
2019-02-20T18:30:35.826Z,99319.88
2019-02-20T18:31:44.276Z,99323.13
2019-02-20T18:32:52.624Z,99321.91
2019-02-20T18:34:01.136Z,99319.91
2019-02-20T18:35:12.839Z,99323.34
2019-02-20T18:36:21.031Z,99324.57
2019-02-20T18:37:29.253Z,99326.75
2019-02-20T18:38:38.912Z,99327.44
2019-02-20T18:39:48.304Z,99325.05
2019-02-20T18:40:56.471Z,99327.60
2019-02-20T18:42:05.801Z,99316.16
2019-02-20T18:43:14.617Z,99320.23
2019-02-20T18:44:23.855Z,99323.73
2019-02-20T18:45:32.707Z,99327.33
2019-02-20T18:46:40.719Z,99333.58
2019-02-20T18:47:48.932Z,99333.58
2019-02-20T18:48:56.934Z,99338.56
2019-02-20T18:50:08.428Z,99337.63
2019-02-20T18:51:17.478Z,99335.92
2019-02-20T18:52:25.508Z,99340.09
2019-02-20T18:53:33.643Z,99336.97
2019-02-20T18:54:41.950Z,99337.34
2019-02-20T18:55:52.063Z,99339.25
2019-02-20T18:57:00.512Z,99332.25
2019-02-20T18:58:08.726Z,99343.59
2019-02-20T18:59:16.984Z,99343.97
2019-02-20T19:00:25.159Z,99344.06
2019-02-20T19:01:33.408Z,99348.20
2019-02-20T19:02:41.578Z,99346.61
2019-02-20T19:03:49.864Z,99352.11
2019-02-20T19:04:58.308Z,99347.76
2019-02-20T19:06:06.936Z,99355.02
2019-02-20T19:07:15.130Z,99359.19
2019-02-20T19:08:48.080Z,99354.53
2019-02-20T19:09:56.175Z,99356.23
2019-02-20T19:11:14.714Z,99360.77
2019-02-20T19:12:30.283Z,99353.95
2019-02-20T19:14:02.651Z,99352.55
2019-02-20T19:15:35.992Z,99357.46
2019-02-20T19:17:12.172Z,99358.12
2019-02-20T19:18:39.210Z,99359.72
2019-02-20T19:20:07.665Z,99355.75
2019-02-20T19:21:50.085Z,99358.59
2019-02-20T19:23:14.133Z,99351.88
2019-02-20T19:24:47.299Z,99355.00
2019-02-20T19:26:23.772Z,99355.58
2019-02-20T19:27:42.111Z,99356.59
2019-02-20T19:29:17.165Z,99360.29
2019-02-20T19:31:01.247Z,99363.61
2019-02-20T19:32:21.347Z,99366.80
2019-02-20T19:34:08.076Z,99369.27
2019-02-20T19:35:59.345Z,99374.00
2019-02-20T19:37:32.911Z,99372.67
2019-02-20T19:38:51.411Z,99371.34
2019-02-20T19:40:27.619Z,99374.09
2019-02-20T19:41:52.159Z,99371.14
2019-02-20T19:43:27.710Z,99371.23
2019-02-20T19:44:57.248Z,99371.55
2019-02-20T19:46:49.990Z,99376.17
2019-02-20T19:48:14.010Z,99376.06
2019-02-20T19:49:50.086Z,99375.43
2019-02-20T19:51:22.920Z,99375.98
2019-02-20T19:53:11.620Z,99386.03
2019-02-20T19:54:30.220Z,99381.38
2019-02-20T19:56:12.337Z,99384.11
2019-02-20T19:57:27.805Z,99385.63
2019-02-20T19:59:05.673Z,99387.96
2019-02-20T20:00:36.043Z,99392.72
2019-02-20T20:02:27.866Z,99395.07
2019-02-20T20:04:02.717Z,99398.20
2019-02-20T20:05:54.003Z,99397.64
2019-02-20T20:07:18.154Z,99398.42
2019-02-20T20:08:48.804Z,99399.05
2019-02-20T20:10:07.146Z,99396.39
2019-02-20T20:11:31.579Z,99399.81
2019-02-20T20:12:56.108Z,99401.39
2019-02-20T20:14:20.447Z,99399.00
2019-02-20T20:15:44.920Z,99404.67
2019-02-20T20:17:24.148Z,99404.20
2019-02-20T20:18:55.906Z,99406.47
2019-02-20T20:20:14.140Z,99402.44
2019-02-20T20:21:44.389Z,99401.37
2019-02-20T20:23:06.356Z,99400.14
2019-02-20T20:24:30.842Z,99395.70
2019-02-20T20:25:57.887Z,99395.70
2019-02-20T20:27:44.926Z,99402.59
2019-02-20T20:29:05.972Z,99401.02
2019-02-20T20:31:01.892Z,99401.55
2019-02-20T20:32:39.011Z,99391.91
2019-02-20T20:34:00.386Z,99406.84
2019-02-20T20:35:59.372Z,99405.23
2019-02-20T20:37:17.837Z,99401.09
2019-02-20T20:38:30.330Z,99398.60
2019-02-20T20:39:48.412Z,99398.50
2019-02-20T20:41:21.658Z,99395.67
2019-02-20T20:42:52.363Z,99398.86
2019-02-20T20:44:28.244Z,99394.23
2019-02-20T20:45:46.166Z,99391.84
2019-02-20T20:47:07.366Z,99397.23
2019-02-20T20:48:46.579Z,99392.41
2019-02-20T20:49:59.252Z,99391.18
2019-02-20T20:51:33.954Z,99393.98
2019-02-20T20:53:08.554Z,99394.87
2019-02-20T20:54:26.856Z,99393.92
2019-02-20T20:56:01.477Z,99387.19
2019-02-20T20:57:43.854Z,99390.90
2019-02-20T20:59:02.023Z,99390.02
2019-02-20T21:00:20.951Z,99393.55
2019-02-20T21:01:45.605Z,99395.43
2019-02-20T21:02:58.318Z,99392.25
2019-02-20T21:04:50.844Z,99398.95
2019-02-20T21:06:33.016Z,99398.86
2019-02-20T21:08:00.338Z,99397.38
2019-02-20T21:09:15.297Z,99398.88
2019-02-20T21:10:52.855Z,99395.86
2019-02-20T21:12:17.143Z,99397.00
2019-02-20T21:13:41.348Z,99393.95
2019-02-20T21:15:02.917Z,99396.66
2019-02-20T21:16:34.575Z,99394.48
2019-02-20T21:18:07.690Z,99398.64
2019-02-20T21:19:40.983Z,99395.15
2019-02-20T21:21:01.931Z,99401.64
2019-02-20T21:22:42.920Z,99402.20
2019-02-20T21:24:07.313Z,99394.58
2019-02-20T21:25:34.627Z,99395.77
2019-02-20T21:26:52.576Z,99397.38
2019-02-20T21:28:21.642Z,99396.59
2019-02-20T21:29:47.246Z,99402.82
2019-02-20T21:31:35.841Z,99396.02
2019-02-20T21:33:09.492Z,99399.89
2019-02-20T21:34:43.071Z,99403.55
2019-02-20T21:35:58.351Z,99407.98
2019-02-20T21:37:31.473Z,99401.59
2019-02-20T21:38:55.441Z,99404.70
2019-02-20T21:40:16.750Z,99405.09
2019-02-20T21:41:49.861Z,99407.73
2019-02-20T21:43:17.086Z,99403.48
2019-02-20T21:44:50.267Z,99407.22
2019-02-20T21:46:24.660Z,99408.34
2019-02-20T21:47:58.850Z,99407.47
2019-02-20T21:49:17.374Z,99404.39
2019-02-20T21:50:38.690Z,99403.12
2019-02-20T21:52:11.718Z,99407.22
2019-02-20T21:53:24.163Z,99411.19
2019-02-20T21:54:48.599Z,99409.20
2019-02-20T21:56:19.207Z,99409.35
2019-02-20T21:58:03.103Z,99409.16
2019-02-20T21:59:21.171Z,99403.02
2019-02-20T22:00:51.452Z,99406.98
2019-02-20T22:02:06.734Z,99412.18
2019-02-20T22:03:31.278Z,99411.39
2019-02-20T22:05:20.058Z,99414.13
2019-02-20T22:07:00.592Z,99411.01
2019-02-20T22:08:41.319Z,99408.31
2019-02-20T22:10:30.870Z,99404.78
2019-02-20T22:12:04.435Z,99409.92
2019-02-20T22:13:34.928Z,99407.74
2019-02-20T22:15:04.042Z,99401.98
2019-02-20T22:16:33.958Z,99405.86
2019-02-20T22:17:58.844Z,99405.09
2019-02-20T22:19:22.590Z,99400.91
2019-02-20T22:20:57.072Z,99414.59
2019-02-20T22:22:24.113Z,99412.52
2019-02-20T22:23:51.571Z,99415.72
2019-02-20T22:25:20.155Z,99419.27
2019-02-20T22:26:41.041Z,99408.50
2019-02-20T22:28:42.947Z,99408.13
2019-02-20T22:30:12.760Z,99400.29
2019-02-20T22:31:51.878Z,99403.41
2019-02-20T22:33:13.299Z,99406.10
2019-02-20T22:34:34.496Z,99406.89
2019-02-20T22:36:07.983Z,99411.71
2019-02-20T22:37:39.588Z,99412.65
2019-02-20T22:39:28.075Z,99408.59
2019-02-20T22:40:49.029Z,99409.54
2019-02-20T22:42:25.562Z,99409.83
2019-02-20T22:43:57.523Z,99408.27
2019-02-20T22:45:25.124Z,99411.48
2019-02-20T22:46:52.234Z,99415.63
2019-02-20T22:48:23.633Z,99410.72
2019-02-20T22:49:44.849Z,99416.00
2019-02-20T22:51:36.328Z,99418.78
2019-02-20T22:52:57.391Z,99409.06
2019-02-20T22:54:09.796Z,99417.42
2019-02-20T22:55:50.320Z,99414.03
2019-02-20T22:57:26.587Z,99417.84
2019-02-20T22:58:44.717Z,99419.45
2019-02-20T23:00:05.771Z,99424.21
2019-02-20T23:01:21.476Z,99420.30
2019-02-20T23:02:45.581Z,99420.88
2019-02-20T23:03:58.166Z,99417.13
2019-02-20T23:05:51.612Z,99423.08
2019-02-20T23:07:21.991Z,99418.88
2019-02-20T23:08:43.340Z,99418.12
2019-02-20T23:10:13.964Z,99421.75
2019-02-20T23:11:41.742Z,99416.37
2019-02-20T23:12:54.428Z,99416.68
2019-02-20T23:14:21.628Z,99415.73
2019-02-20T23:15:29.581Z,99415.64
2019-02-20T23:16:38.313Z,99419.99
2019-02-20T23:17:47.270Z,99416.12
2019-02-20T23:18:55.397Z,99419.99
2019-02-20T23:20:04.101Z,99421.69
2019-02-20T23:21:13.671Z,99423.02
2019-02-20T23:22:21.890Z,99422.16
2019-02-20T23:23:30.087Z,99420.84
2019-02-20T23:24:38.692Z,99418.67
2019-02-20T23:25:47.251Z,99424.33
2019-02-20T23:26:55.616Z,99430.83
2019-02-20T23:28:04.080Z,99429.41
2019-02-20T23:29:12.410Z,99428.84
2019-02-20T23:30:20.595Z,99423.39
2019-02-20T23:31:28.843Z,99430.77
2019-02-20T23:32:37.116Z,99424.53
2019-02-20T23:33:45.263Z,99427.48
2019-02-20T23:34:53.687Z,99426.55
2019-02-20T23:36:02.150Z,99429.95
2019-02-20T23:37:10.107Z,99429.37
2019-02-20T23:38:18.561Z,99431.55
2019-02-20T23:39:26.669Z,99433.25
2019-02-20T23:40:34.936Z,99431.93
2019-02-20T23:41:43.571Z,99438.01
2019-02-20T23:42:51.818Z,99432.24
2019-02-20T23:44:00.274Z,99438.39
2019-02-20T23:45:10.340Z,99436.59
2019-02-20T23:46:18.544Z,99434.98
2019-02-20T23:47:26.622Z,99442.92
2019-02-20T23:48:34.649Z,99441.59
2019-02-20T23:49:43.449Z,99447.36
2019-02-20T23:50:52.055Z,99439.20
2019-02-20T23:52:00.167Z,99447.39
2019-02-20T23:53:08.534Z,99445.16
2019-02-20T23:54:18.237Z,99449.88
2019-02-20T23:56:16.659Z,99453.00
2019-02-20T23:57:25.165Z,99453.25
2019-02-20T23:58:33.366Z,99453.53
2019-02-20T23:59:41.390Z,99448.09
